This demonstration page uses our WeatherBlox Daily Observations layout. Learn more.

Left ArrowRight Arrow

Hourly Observations for June 9, 2015

Temp ( °F °C ) Dew Point ( °F °C ) Humidity (%) Winds ( mph kmh ) Pressure ( in mb ) Visibility ( mi km ) Precip ( " mm )
12:54 am 00:54 Clear 70 21.1 60 15.6 71 71 N N/A 29.87 1011 10 16.0934 N/A
1:54 am 01:54 Clear 67 19.4 59 15 76 76 N N/A 29.86 1011 10 16.0934 N/A
2:54 am 02:54 Clear 65 18.3 59 15 81 81 SE 3 6 29.86 1011 10 16.0934 N/A
3:54 am 03:54 Clear 65 18.3 58 14.4 78 78 N N/A 29.86 1011 10 16.0934 N/A
4:54 am 04:54 Clear 63 17.2 58 14.4 84 84 N N/A 29.85 1011 10 16.0934 N/A
5:54 am 05:54 Clear 65 18.3 57 13.9 76 76 N N/A 29.86 1011 10 16.0934 N/A
6:54 am 06:54 Sunny 65 18.3 59 15 81 81 SSE 3 6 29.86 1011 10 16.0934 N/A
7:54 am 07:54 Sunny 70 21.1 60 15.6 71 71 SE 3 6 29.85 1011 10 16.0934 N/A
8:54 am 08:54 Sunny 79 26.1 61 16.1 54 54 SSW 6 9 29.84 1011 10 16.0934 N/A
9:54 am 09:54 Sunny 84 28.9 60 15.6 44 44 SW 8 13 29.83 1010 10 16.0934 N/A
10:54 am 10:54 Sunny 88 31.1 60 15.6 39 39 SW 13 20 29.81 1010 10 16.0934 N/A
11:54 am 11:54 Sunny 91 32.8 61 16.1 37 37 SW 12 19 29.8 1009 10 16.0934 N/A
12:54 pm 12:54 Sunny 94 34.4 58 14.4 30 30 SSW 14 22 29.78 1009 10 16.0934 N/A
1:54 pm 13:54 Sunny 95 35 55 12.8 26 26 SW 15 24 29.77 1008 10 16.0934 N/A
2:54 pm 14:54 Sunny 96 35.6 54 12.2 24 24 SW 12 19 29.75 1008 10 16.0934 N/A
3:54 pm 15:54 Sunny 96 35.6 55 12.8 25 25 SSW 17 28 29.73 1007 10 16.0934 N/A
4:54 pm 16:54 Sunny 96 35.6 55 12.8 25 25 SSW 12 19 29.72 1006 10 16.0934 N/A
5:54 pm 17:54 Sunny 96 35.6 55 12.8 25 25 SW 9 15 29.7 1006 10 16.0934 N/A
6:54 pm 18:54 Sunny 94 34.4 58 14.4 30 30 S 10 17 29.69 1005 10 16.0934 N/A
7:54 pm 19:54 Sunny 91 32.8 61 16.1 37 37 SSW 8 13 29.67 1005 10 16.0934 N/A
8:54 pm 20:54 Sunny 82 27.8 63 17.2 53 53 SSW 7 11 29.68 1005 10 16.0934 N/A
9:54 pm 21:54 Clear 80 26.7 62 16.7 54 54 SSW 8 13 29.7 1006 10 16.0934 N/A
10:54 pm 22:54 Clear 82 27.8 63 17.2 53 53 SSW 8 13 29.7 1006 10 16.0934 N/A
11:54 pm 23:54 Clear 77 25 65 18.3 66 66 S 8 13 29.7 1006 10 16.0934 N/A

Powered by AerisWeather